Time;durP1;ratioP1;P1;durP2;ratioP2;P2;SDS_P1;SDS_P2;PMS_P1;PMS_P2;Temp;Humidity;BMP_temperature;BMP_pressure;BME280_temperature;BME280_humidity;BME280_pressure;Samples;Min_cycle;Max_cycle;Signal;HPM_P1;HPM_P2
2023/07/29 00:02:02;;;;;;;1.70;1.60;;;22.00;79.50;22.90;99949.00;;;;6272660;22;20716;-50
2023/07/29 00:04:28;;;;;;;1.70;1.60;;;22.10;80.30;22.90;99965.00;;;;6272166;22;20530;-50
2023/07/29 00:06:53;;;;;;;1.50;1.40;;;22.10;79.60;22.90;99949.00;;;;6272630;22;20141;-51
2023/07/29 00:09:19;;;;;;;2.13;1.60;;;22.00;79.50;22.90;99955.00;;;;6272023;22;20169;-51
2023/07/29 00:11:45;;;;;;;1.43;1.33;;;22.00;79.50;22.90;99946.00;;;;6272183;22;20183;-50
2023/07/29 00:14:11;;;;;;;1.87;1.70;;;22.00;79.50;22.90;99944.00;;;;6272290;22;20230;-50
2023/07/29 00:16:36;;;;;;;1.70;1.60;;;22.00;79.50;22.90;99936.00;;;;6271573;22;20157;-50
2023/07/29 00:19:03;;;;;;;1.70;1.60;;;22.00;79.50;22.90;99944.00;;;;6272111;22;20169;-50
2023/07/29 00:21:28;;;;;;;1.60;1.50;;;22.00;79.50;22.90;99935.00;;;;6272582;22;20220;-50
2023/07/29 00:23:57;;;;;;;1.80;1.70;;;22.00;79.50;22.90;99937.00;;;;6272464;22;20196;-50
2023/07/29 00:26:25;;;;;;;1.70;1.60;;;22.00;79.50;22.90;99925.00;;;;6272118;22;20141;-50
2023/07/29 00:28:51;;;;;;;1.60;1.50;;;22.00;79.50;22.90;99926.00;;;;6271821;22;20200;-50
2023/07/29 00:31:17;;;;;;;1.77;1.67;;;22.00;79.50;22.90;99926.00;;;;6271758;22;20628;-50
2023/07/29 00:33:43;;;;;;;1.70;1.60;;;22.00;79.50;22.90;99926.00;;;;6272034;22;20220;-50
2023/07/29 00:36:09;;;;;;;1.70;1.60;;;22.00;79.50;22.90;99923.00;;;;6271486;22;20183;-50
2023/07/29 00:38:34;;;;;;;1.80;1.70;;;22.00;79.50;22.90;99927.00;;;;6271682;22;20245;-50
2023/07/29 00:41:02;;;;;;;1.70;1.60;;;22.00;79.50;22.90;99931.00;;;;6271741;22;20507;-50
2023/07/29 00:43:27;;;;;;;1.60;1.50;;;22.00;79.50;22.90;99918.00;;;;6271938;22;20146;-52
2023/07/29 00:45:53;;;;;;;1.70;1.60;;;22.00;79.50;22.90;99859.00;;;;6271650;22;20145;-51
2023/07/29 00:48:19;;;;;;;1.60;1.50;;;22.00;79.50;22.90;99916.00;;;;6271900;22;20465;-51
2023/07/29 00:50:45;;;;;;;1.70;1.60;;;21.90;79.40;22.90;99928.00;;;;6272039;22;20619;-51
2023/07/29 00:53:10;;;;;;;1.60;1.50;;;22.00;79.50;22.80;99931.00;;;;6270179;22;20182;-51
2023/07/29 00:55:37;;;;;;;1.60;1.50;;;21.90;79.40;22.80;99914.00;;;;6269847;22;20153;-51
2023/07/29 00:58:03;;;;;;;1.70;1.60;;;22.00;79.40;22.80;99923.00;;;;6270224;22;20535;-51
2023/07/29 01:00:29;;;;;;;1.30;1.30;;;22.00;79.40;22.80;99930.00;;;;6271479;22;20173;-51
2023/07/29 01:02:54;;;;;;;2.17;1.60;;;21.90;79.30;22.80;99924.00;;;;6271592;22;20233;-51
2023/07/29 01:05:20;;;;;;;1.70;1.60;;;22.00;79.50;22.80;99910.00;;;;6271286;22;20275;-51
2023/07/29 01:08:08;;;;;;;1.60;1.50;;;21.90;79.30;22.80;99919.00;;;;6244214;22;20148;-51
2023/07/29 01:11:22;;;;;;;1.60;1.50;;;22.00;79.40;22.90;99914.00;;;;6270217;22;20469;-51
2023/07/29 01:13:54;;;;;;;1.70;1.60;;;21.90;79.20;22.60;99910.00;;;;6270299;22;20145;-51
2023/07/29 01:16:46;;;;;;;1.70;1.50;;;21.90;79.20;22.80;99907.00;;;;6245067;22;20157;-51
2023/07/29 01:19:31;;;;;;;1.50;1.40;;;21.90;79.20;22.80;99907.00;;;;6269989;22;20173;-51
2023/07/29 01:21:56;;;;;;;1.50;1.40;;;21.90;79.10;22.80;99903.00;;;;6270154;22;20133;-51
2023/07/29 01:24:22;;;;;;;1.40;1.40;;;22.00;79.20;22.80;99893.00;;;;6269828;22;20459;-51
2023/07/29 01:26:48;;;;;;;1.60;1.50;;;21.90;79.10;22.80;99902.00;;;;6271448;22;20148;-54
2023/07/29 01:29:14;;;;;;;1.50;1.40;;;21.90;79.10;22.80;99895.00;;;;6271362;22;20168;-54
2023/07/29 01:31:43;;;;;;;1.30;1.30;;;21.90;79.10;22.80;99878.00;;;;6269891;22;20141;-54
2023/07/29 01:34:32;;;;;;;1.40;1.40;;;21.90;79.00;22.80;99892.00;;;;6220108;22;20149;-53
2023/07/29 01:36:58;;;;;;;1.70;1.60;;;21.90;79.10;22.80;99877.00;;;;6222338;22;20474;-55
2023/07/29 01:39:23;;;;;;;1.53;1.43;;;21.90;79.00;22.80;99878.00;;;;6244220;22;20209;-54
2023/07/29 01:41:49;;;;;;;1.63;1.53;;;21.90;79.00;22.80;99879.00;;;;6269462;22;20145;-54
2023/07/29 01:44:15;;;;;;;1.53;1.43;;;21.90;79.00;22.80;99898.00;;;;6243965;22;20648;-55
2023/07/29 01:46:41;;;;;;;1.70;1.60;;;21.90;79.00;22.80;99883.00;;;;6218739;22;20161;-55
2023/07/29 01:49:07;;;;;;;1.23;1.23;;;21.90;79.00;22.80;99890.00;;;;6270982;22;20165;-55
2023/07/29 01:51:33;;;;;;;1.60;1.50;;;21.90;79.00;22.80;99893.00;;;;6272328;22;20149;-54
2023/07/29 01:53:59;;;;;;;1.40;1.30;;;21.90;79.00;22.80;99888.00;;;;6269687;22;20151;-54
2023/07/29 01:56:25;;;;;;;1.60;1.50;;;21.90;79.00;22.80;99883.00;;;;6270753;22;20537;-54
2023/07/29 01:58:51;;;;;;;1.60;1.50;;;21.90;79.00;22.80;99879.00;;;;6271005;22;20169;-56
2023/07/29 02:01:16;;;;;;;1.60;1.50;;;21.90;78.90;22.80;99884.00;;;;6270933;22;20223;-56
2023/07/29 02:03:42;;;;;;;1.27;1.27;;;21.90;78.90;22.80;99879.00;;;;6271588;22;20142;-56
2023/07/29 02:06:08;;;;;;;1.57;1.47;;;21.90;78.80;22.80;99874.00;;;;6271365;22;20580;-56
2023/07/29 02:08:34;;;;;;;1.20;1.20;;;21.90;78.80;22.80;99861.00;;;;6271277;22;20161;-55
2023/07/29 02:10:59;;;;;;;1.40;1.33;;;21.90;78.80;22.80;99868.00;;;;6271174;22;20149;-55
2023/07/29 02:13:25;;;;;;;1.20;1.20;;;21.90;78.90;22.80;99872.00;;;;6271045;22;20149;-55
2023/07/29 02:15:51;;;;;;;1.60;1.50;;;21.90;78.90;22.80;99889.00;;;;6270486;22;20240;-54
2023/07/29 02:18:17;;;;;;;1.50;1.50;;;21.90;78.80;22.80;99878.00;;;;6270773;22;20236;-55
2023/07/29 02:20:48;;;;;;;1.60;1.50;;;21.90;78.80;22.80;99874.00;;;;6270848;22;20572;-55
2023/07/29 02:23:16;;;;;;;1.70;1.60;;;21.90;78.80;22.80;99866.00;;;;6271417;22;20203;-54
2023/07/29 02:25:42;;;;;;;1.60;1.50;;;21.90;78.80;22.80;99859.00;;;;6270810;22;20168;-53
2023/07/29 02:28:07;;;;;;;1.50;1.40;;;21.90;78.80;22.80;99854.00;;;;6270696;22;20149;-54
2023/07/29 02:30:33;;;;;;;1.47;1.37;;;21.90;78.90;22.80;99858.00;;;;6270716;22;20156;-54
2023/07/29 02:33:01;;;;;;;1.60;1.50;;;21.90;78.80;22.80;99868.00;;;;6270832;22;20485;-53
2023/07/29 02:35:27;;;;;;;1.40;1.30;;;21.90;78.70;22.80;99861.00;;;;6270511;22;20145;-54
2023/07/29 02:37:53;;;;;;;1.47;1.37;;;21.90;78.80;22.80;99860.00;;;;6270714;22;20149;-53
2023/07/29 02:40:20;;;;;;;1.53;1.43;;;21.90;78.70;22.80;99856.00;;;;6270705;22;20271;-53
2023/07/29 02:42:46;;;;;;;1.47;1.37;;;21.90;78.70;22.70;99854.00;;;;6271239;22;20141;-54
2023/07/29 02:45:12;;;;;;;1.40;1.40;;;21.90;78.70;22.70;99866.00;;;;6270735;22;20148;-55
2023/07/29 02:47:38;;;;;;;1.30;1.30;;;21.90;78.60;22.70;99866.00;;;;6270967;22;20170;-54
2023/07/29 02:50:04;;;;;;;1.60;1.50;;;21.90;78.60;22.70;99871.00;;;;6270801;22;20593;-54
2023/07/29 02:52:30;;;;;;;1.50;1.43;;;21.80;78.40;22.70;99878.00;;;;6270933;22;20160;-54
2023/07/29 02:54:56;;;;;;;1.30;1.30;;;21.80;78.30;22.70;99874.00;;;;6270805;22;20144;-54
2023/07/29 02:57:21;;;;;;;1.60;1.50;;;21.80;78.30;22.70;99870.00;;;;6270531;22;20149;-55
2023/07/29 02:59:47;;;;;;;1.23;1.20;;;21.80;78.30;22.70;99879.00;;;;6270543;22;20660;-55
2023/07/29 03:02:15;;;;;;;1.37;1.37;;;21.80;78.30;22.70;99868.00;;;;6271841;22;20148;-55
2023/07/29 03:04:41;;;;;;;1.33;1.27;;;21.80;78.30;22.70;99877.00;;;;6272339;22;20149;-53
2023/07/29 03:07:07;;;;;;;1.70;1.60;;;21.80;78.30;22.70;99871.00;;;;6271862;22;20145;-54
2023/07/29 03:09:33;;;;;;;1.33;1.23;;;21.80;78.30;22.70;99874.00;;;;6270671;22;20676;-53
2023/07/29 03:11:59;;;;;;;1.60;1.50;;;21.90;78.40;22.70;99868.00;;;;6272476;22;20525;-54
2023/07/29 03:14:24;;;;;;;1.60;1.50;;;21.80;78.20;22.70;99870.00;;;;6272639;22;20191;-54
2023/07/29 03:16:50;;;;;;;1.60;1.50;;;21.80;78.20;22.70;99872.00;;;;6272163;22;20540;-54
2023/07/29 03:19:16;;;;;;;1.30;1.30;;;21.80;78.30;22.70;99869.00;;;;6272306;22;20690;-54
2023/07/29 03:21:42;;;;;;;1.60;1.50;;;21.80;78.20;22.70;99872.00;;;;6272501;22;20148;-55
2023/07/29 03:24:07;;;;;;;1.50;1.40;;;21.80;78.20;22.70;99870.00;;;;6272232;22;20250;-54
2023/07/29 03:26:33;;;;;;;1.50;1.40;;;21.80;78.20;22.70;99877.00;;;;6271807;22;20152;-55
2023/07/29 03:28:59;;;;;;;1.60;1.50;;;21.80;78.10;22.70;99868.00;;;;6272886;22;20165;-55
2023/07/29 03:31:25;;;;;;;1.50;1.50;;;21.80;78.00;22.70;99878.00;;;;6273585;22;20149;-53
2023/07/29 03:33:50;;;;;;;1.70;1.60;;;21.80;78.00;22.70;99869.00;;;;6273735;22;20183;-55
2023/07/29 03:36:16;;;;;;;1.60;1.50;;;21.80;78.00;22.70;99850.00;;;;6273744;22;20263;-54
2023/07/29 03:38:44;;;;;;;2.23;1.40;;;21.80;78.20;22.70;99857.00;;;;6274060;22;20165;-54
2023/07/29 03:41:10;;;;;;;1.70;1.60;;;21.80;78.40;22.70;99850.00;;;;6273773;22;20519;-53
2023/07/29 03:43:36;;;;;;;1.40;1.37;;;21.80;78.30;22.70;99857.00;;;;6273978;22;20145;-54
2023/07/29 03:46:01;;;;;;;2.90;1.50;;;21.80;78.30;22.70;99849.00;;;;6273608;22;20168;-55
2023/07/29 03:48:27;;;;;;;1.70;1.60;;;21.80;78.30;22.70;99850.00;;;;6274254;22;20811;-54
2023/07/29 03:50:54;;;;;;;1.37;1.37;;;21.80;78.30;22.70;99834.00;;;;6274058;22;20149;-54
2023/07/29 03:53:20;;;;;;;1.50;1.50;;;21.80;78.30;22.70;99836.00;;;;6273651;22;20160;-55
2023/07/29 03:55:46;;;;;;;1.23;1.23;;;21.80;78.30;22.70;99847.00;;;;6273528;22;20149;-53
2023/07/29 03:58:12;;;;;;;1.83;1.43;;;21.80;78.30;22.70;99827.00;;;;6271922;22;20204;-53
2023/07/29 04:00:38;;;;;;;1.77;1.67;;;21.80;78.20;22.70;99836.00;;;;6271903;22;20220;-55
2023/07/29 04:03:04;;;;;;;1.40;1.30;;;21.80;78.20;22.70;99845.00;;;;6273355;22;20141;-54
2023/07/29 04:05:29;;;;;;;1.60;1.50;;;21.80;78.20;22.70;99857.00;;;;6273424;22;20152;-54
2023/07/29 04:07:55;;;;;;;1.50;1.50;;;21.80;78.20;22.70;99860.00;;;;6273127;22;20491;-54
2023/07/29 04:10:21;;;;;;;1.70;1.60;;;21.80;78.20;22.70;99858.00;;;;6246068;22;20168;-54
2023/07/29 04:12:47;;;;;;;1.63;1.53;;;21.80;78.10;22.70;99875.00;;;;6273739;22;20472;-53
2023/07/29 04:15:12;;;;;;;2.27;1.60;;;21.80;78.20;22.70;99865.00;;;;6273133;22;20153;-53
2023/07/29 04:17:38;;;;;;;1.47;1.37;;;21.80;78.30;22.70;99862.00;;;;6272105;22;20157;-53
2023/07/29 04:20:04;;;;;;;1.50;1.40;;;21.80;78.30;22.70;99868.00;;;;6273389;22;20180;-55
2023/07/29 04:22:30;;;;;;;1.90;1.40;;;21.70;78.30;22.60;99870.00;;;;6273909;22;20145;-55
2023/07/29 04:24:56;;;;;;;1.60;1.50;;;21.80;78.30;22.70;99892.00;;;;6273456;22;20202;-54
2023/07/29 04:27:22;;;;;;;1.60;1.50;;;21.80;78.40;22.70;99886.00;;;;6272855;22;20199;-54
2023/07/29 04:29:47;;;;;;;1.30;1.30;;;21.80;78.50;22.70;99883.00;;;;6273649;22;20215;-55
2023/07/29 04:32:13;;;;;;;1.87;1.60;;;21.80;78.60;22.70;99883.00;;;;6280830;22;20634;-54
2023/07/29 04:34:39;;;;;;;1.67;1.57;;;21.80;78.70;22.70;99896.00;;;;6284030;22;20555;-53
2023/07/29 04:37:05;;;;;;;1.80;1.30;;;21.70;78.60;22.70;99883.00;;;;6280515;22;20145;-54
2023/07/29 04:39:31;;;;;;;1.50;1.40;;;21.80;78.70;22.60;99892.00;;;;6273637;22;20177;-54
2023/07/29 04:41:57;;;;;;;3.13;1.67;;;21.70;78.60;22.60;99881.00;;;;6273279;22;20141;-55
2023/07/29 04:44:23;;;;;;;1.80;1.70;;;21.70;78.90;22.60;99883.00;;;;6261914;22;20149;-54
2023/07/29 04:46:48;;;;;;;3.03;1.50;;;21.70;78.90;22.60;99896.00;;;;6271119;22;20152;-54
2023/07/29 04:49:14;;;;;;;2.90;1.70;;;21.70;78.90;22.60;99900.00;;;;6272415;22;20160;-55
2023/07/29 04:51:40;;;;;;;1.90;1.80;;;21.80;79.10;22.60;99909.00;;;;6272111;22;20145;-55
2023/07/29 04:54:06;;;;;;;1.80;1.70;;;21.80;79.00;22.60;99904.00;;;;6272581;22;20145;-55
2023/07/29 04:56:31;;;;;;;4.23;1.80;;;21.80;79.10;22.60;99909.00;;;;6271622;22;20186;-53
2023/07/29 04:58:57;;;;;;;1.80;1.70;;;21.70;79.00;22.60;99908.00;;;;6272598;22;20603;-53
2023/07/29 05:01:23;;;;;;;2.27;1.53;;;21.70;79.00;22.60;99898.00;;;;6272320;22;20637;-54
2023/07/29 05:03:49;;;;;;;1.60;1.50;;;21.70;79.00;22.60;99832.00;;;;6272930;22;20217;-54
2023/07/29 05:06:14;;;;;;;3.33;1.80;;;21.70;78.90;22.60;99900.00;;;;6271252;22;20149;-54
2023/07/29 05:08:40;;;;;;;1.70;1.53;;;21.80;79.00;22.60;99897.00;;;;6272666;22;20187;-54
2023/07/29 05:11:06;;;;;;;1.60;1.50;;;21.80;79.00;22.60;99895.00;;;;6272425;22;20212;-54
2023/07/29 05:13:31;;;;;;;1.90;1.80;;;21.80;78.90;22.70;99890.00;;;;6272321;22;20149;-54
2023/07/29 05:15:57;;;;;;;2.37;1.80;;;21.70;78.90;22.60;99823.00;;;;6271254;22;20652;-53
2023/07/29 05:18:23;;;;;;;1.50;1.40;;;21.80;79.00;22.70;99890.00;;;;6271168;22;20179;-53
2023/07/29 05:20:49;;;;;;;1.70;1.60;;;21.80;79.10;22.60;99881.00;;;;6272153;22;20180;-54
2023/07/29 05:23:15;;;;;;;1.70;1.60;;;21.70;78.90;22.60;99880.00;;;;6271993;22;20145;-54
2023/07/29 05:25:40;;;;;;;2.00;1.40;;;21.70;78.80;22.60;99878.00;;;;6271347;22;20594;-54
2023/07/29 05:28:06;;;;;;;1.67;1.57;;;21.80;79.00;22.60;99883.00;;;;6272490;22;20211;-53
2023/07/29 05:30:33;;;;;;;1.73;1.60;;;21.80;79.00;22.70;99901.00;;;;6271582;22;20169;-54
2023/07/29 05:32:59;;;;;;;1.73;1.50;;;21.70;78.90;22.60;99890.00;;;;6270157;22;20482;-53
2023/07/29 05:35:25;;;;;;;1.60;1.50;;;21.70;78.90;22.60;99876.00;;;;6272025;22;20149;-54
2023/07/29 05:37:51;;;;;;;1.57;1.47;;;21.70;78.90;22.60;99901.00;;;;6271794;22;20176;-54
2023/07/29 05:40:17;;;;;;;2.20;1.60;;;21.80;79.00;22.60;99905.00;;;;6271628;22;20227;-54
2023/07/29 05:42:43;;;;;;;1.57;1.47;;;21.70;78.90;22.60;99922.00;;;;6271919;22;20145;-52
2023/07/29 05:45:10;;;;;;;1.63;1.53;;;21.80;79.00;22.60;99926.00;;;;6271238;22;20621;-54
2023/07/29 05:47:36;;;;;;;2.07;1.80;;;21.70;78.90;22.60;99932.00;;;;6271156;22;20598;-54
2023/07/29 05:50:04;;;;;;;1.80;1.70;;;21.70;78.90;22.60;99932.00;;;;6272078;22;20268;-54
2023/07/29 05:52:33;;;;;;;2.03;1.70;;;21.70;79.00;22.60;99934.00;;;;6272799;22;20172;-54
2023/07/29 05:54:59;;;;;;;2.10;1.73;;;21.70;79.00;22.60;99925.00;;;;6273477;22;20157;-54
2023/07/29 05:57:24;;;;;;;1.53;1.40;;;21.70;78.90;22.60;99938.00;;;;6271301;22;20674;-53
2023/07/29 05:59:50;;;;;;;1.63;1.53;;;21.70;78.90;22.60;99952.00;;;;6271210;22;20185;-53
2023/07/29 06:02:16;;;;;;;1.57;1.47;;;21.70;78.90;22.60;99937.00;;;;6271547;22;20141;-54
2023/07/29 06:04:42;;;;;;;1.60;1.50;;;21.70;78.90;22.60;99953.00;;;;6271305;22;20643;-54
2023/07/29 06:07:07;;;;;;;2.53;1.60;;;21.70;78.90;22.60;99953.00;;;;6272619;22;20142;-55
2023/07/29 06:09:33;;;;;;;2.17;1.70;;;21.70;78.80;22.60;99952.00;;;;6272837;22;20711;-54
2023/07/29 06:11:59;;;;;;;1.63;1.53;;;21.70;78.90;22.60;99976.00;;;;6271787;22;20149;-54
2023/07/29 06:14:24;;;;;;;1.93;1.70;;;21.70;78.90;22.60;99964.00;;;;6271235;22;20149;-54
2023/07/29 06:16:50;;;;;;;1.37;1.33;;;21.70;78.90;22.60;99967.00;;;;6269831;22;20161;-54
2023/07/29 06:19:16;;;;;;;1.63;1.53;;;21.70;78.90;22.60;99971.00;;;;6271926;22;20776;-54
2023/07/29 06:21:42;;;;;;;2.67;1.57;;;21.70;78.80;22.60;99977.00;;;;6271330;22;20152;-54
2023/07/29 06:24:07;;;;;;;1.60;1.50;;;21.70;78.90;22.60;99971.00;;;;6270251;22;20153;-54
2023/07/29 06:26:33;;;;;;;1.80;1.70;;;21.70;78.90;22.60;99970.00;;;;6268843;22;20171;-54
2023/07/29 06:28:59;;;;;;;2.07;1.67;;;21.70;78.80;22.60;99976.00;;;;6271307;22;20629;-54
2023/07/29 06:31:24;;;;;;;2.30;1.40;;;21.70;78.80;22.60;99986.00;;;;6271336;22;20149;-53
2023/07/29 06:33:50;;;;;;;2.13;1.60;;;21.70;78.90;22.60;99995.00;;;;6271749;22;20199;-54
2023/07/29 06:36:16;;;;;;;1.70;1.60;;;21.70;78.80;22.60;100003.00;;;;6271028;22;20474;-54
2023/07/29 06:38:42;;;;;;;1.80;1.50;;;21.70;78.90;22.60;99989.00;;;;6271965;22;20621;-54
2023/07/29 06:41:08;;;;;;;1.80;1.70;;;21.70;79.70;22.60;99999.00;;;;6271290;22;20208;-54
2023/07/29 06:43:33;;;;;;;1.30;1.30;;;21.70;78.80;22.60;100004.00;;;;6271167;22;20151;-53
2023/07/29 06:45:59;;;;;;;1.87;1.70;;;21.70;78.80;22.60;99984.00;;;;6266473;22;20632;-55
2023/07/29 06:48:25;;;;;;;1.63;1.53;;;21.70;78.80;22.60;99980.00;;;;6271050;22;20151;-54
2023/07/29 06:50:51;;;;;;;1.80;1.70;;;21.70;78.80;22.60;99986.00;;;;6271034;22;20149;-55
2023/07/29 06:53:16;;;;;;;1.60;1.50;;;21.70;78.80;22.60;99992.00;;;;6269835;22;20153;-54
2023/07/29 06:55:43;;;;;;;2.80;1.60;;;21.70;78.80;22.60;99994.00;;;;6269589;22;20194;-55
2023/07/29 06:58:10;;;;;;;1.60;1.50;;;21.70;78.80;22.60;99991.00;;;;6268992;22;20148;-54
2023/07/29 07:00:35;;;;;;;1.60;1.50;;;21.70;78.70;22.60;99996.00;;;;6269059;22;20703;-54
2023/07/29 07:03:01;;;;;;;1.70;1.60;;;21.70;78.80;22.60;99989.00;;;;6270903;22;20152;-54
2023/07/29 07:05:27;;;;;;;1.80;1.60;;;21.70;78.80;22.60;99978.00;;;;6272974;22;20191;-53
2023/07/29 07:07:53;;;;;;;1.70;1.60;;;21.70;78.60;22.60;99992.00;;;;6272669;22;20636;-54
2023/07/29 07:10:18;;;;;;;1.60;1.50;;;21.70;78.60;22.60;99996.00;;;;6272768;22;20192;-53
2023/07/29 07:12:44;;;;;;;1.70;1.60;;;21.70;78.60;22.60;99994.00;;;;6272536;22;20481;-53
2023/07/29 07:15:10;;;;;;;1.63;1.53;;;21.70;78.60;22.60;99995.00;;;;6272716;22;20145;-54
2023/07/29 07:17:36;;;;;;;1.80;1.70;;;21.70;78.60;22.60;99998.00;;;;6271879;22;20214;-55
2023/07/29 07:20:01;;;;;;;1.80;1.60;;;21.70;78.60;22.60;99988.00;;;;6272206;22;20234;-54
2023/07/29 07:22:27;;;;;;;1.60;1.50;;;21.70;78.60;22.60;99998.00;;;;6272730;22;20210;-54
2023/07/29 07:24:53;;;;;;;1.60;1.50;;;21.70;78.60;22.60;99989.00;;;;6272670;22;20215;-54
2023/07/29 07:27:18;;;;;;;1.50;1.40;;;21.70;78.60;22.60;99990.00;;;;6272253;22;20152;-54
2023/07/29 07:29:44;;;;;;;1.80;1.70;;;21.70;78.60;22.60;99996.00;;;;6271720;22;20172;-53
2023/07/29 07:32:10;;;;;;;1.67;1.57;;;21.70;78.60;22.60;99993.00;;;;6272680;22;20145;-54
2023/07/29 07:34:36;;;;;;;1.47;1.40;;;21.70;78.60;22.60;99994.00;;;;6272984;22;20150;-54
2023/07/29 07:37:03;;;;;;;1.70;1.60;;;21.70;78.60;22.60;99998.00;;;;6272379;22;20211;-54
2023/07/29 07:39:29;;;;;;;1.63;1.53;;;21.70;78.60;22.60;100010.00;;;;6277004;22;20176;-55
2023/07/29 07:41:55;;;;;;;1.57;1.47;;;21.70;78.70;22.60;100004.00;;;;6284076;22;20145;-55
2023/07/29 07:44:21;;;;;;;1.77;1.60;;;21.70;78.60;22.60;100006.00;;;;6282368;22;20149;-55
2023/07/29 07:46:46;;;;;;;1.63;1.53;;;21.70;78.70;22.60;100003.00;;;;6272875;22;20141;-55
2023/07/29 07:49:13;;;;;;;1.70;1.60;;;21.70;78.70;22.60;100013.00;;;;6272638;22;20165;-55
2023/07/29 07:51:39;;;;;;;1.70;1.60;;;21.70;78.80;22.60;100009.00;;;;6272253;22;20235;-55
2023/07/29 07:54:04;;;;;;;1.70;1.60;;;21.70;78.70;22.60;100007.00;;;;6273852;22;20181;-55
2023/07/29 07:56:30;;;;;;;1.70;1.60;;;21.70;78.80;22.60;100013.00;;;;6272278;22;20149;-55
2023/07/29 07:58:56;;;;;;;1.77;1.50;;;21.70;78.80;22.60;100016.00;;;;6272340;22;20676;-55
2023/07/29 08:01:21;;;;;;;1.73;1.63;;;21.70;78.80;22.60;100021.00;;;;6272715;22;20557;-54
2023/07/29 08:03:47;;;;;;;1.80;1.70;;;21.70;78.90;22.60;100013.00;;;;6273141;22;20227;-58
2023/07/29 08:06:13;;;;;;;1.70;1.60;;;21.70;78.80;22.60;100018.00;;;;6271476;22;20203;-55
2023/07/29 08:08:39;;;;;;;1.30;1.30;;;21.70;79.10;22.60;100020.00;;;;6274047;22;20161;-55
2023/07/29 08:11:04;;;;;;;1.70;1.60;;;21.70;79.10;22.60;100009.00;;;;6274121;22;20168;-55
2023/07/29 08:13:30;;;;;;;1.80;1.70;;;21.70;79.10;22.60;100025.00;;;;6272107;22;20477;-55
2023/07/29 08:15:56;;;;;;;1.70;1.60;;;21.70;79.20;22.60;100031.00;;;;6269917;22;20160;-53
2023/07/29 08:18:22;;;;;;;1.90;1.80;;;21.70;79.20;22.60;100012.00;;;;6272549;22;20161;-54
2023/07/29 08:20:57;;;;;;;1.80;1.70;;;21.70;79.20;22.60;100008.00;;;;6272179;22;20702;-54
2023/07/29 08:23:25;;;;;;;2.13;1.73;;;21.70;79.20;22.60;100009.00;;;;6271063;22;20597;-55
2023/07/29 08:25:56;;;;;;;2.53;1.80;;;21.70;79.20;22.60;100019.00;;;;6268797;22;20195;-55
2023/07/29 08:28:22;;;;;;;3.67;1.90;;;21.70;79.30;22.60;100013.00;;;;6269210;22;20137;-55
2023/07/29 08:30:48;;;;;;;2.10;1.90;;;21.70;79.30;22.60;100015.00;;;;6270572;22;20379;-54
2023/07/29 08:33:14;;;;;;;1.80;1.70;;;21.70;79.30;22.60;100015.00;;;;6271028;22;20715;-55
2023/07/29 08:35:40;;;;;;;2.10;1.77;;;21.70;79.30;22.60;100009.00;;;;6268932;22;20483;-55
2023/07/29 08:38:06;;;;;;;2.60;1.80;;;21.70;79.30;22.60;100013.00;;;;6271125;22;20153;-55
2023/07/29 08:40:31;;;;;;;1.80;1.70;;;21.70;79.30;22.60;100011.00;;;;6270506;22;20173;-55
2023/07/29 08:42:58;;;;;;;2.93;1.97;;;21.70;79.30;22.60;100003.00;;;;6268282;22;20179;-54
2023/07/29 08:45:23;;;;;;;2.13;2.00;;;21.70;79.30;22.60;99997.00;;;;6218135;22;20149;-54
2023/07/29 08:47:49;;;;;;;2.03;1.90;;;21.70;79.40;22.60;100014.00;;;;6218620;22;20617;-54
2023/07/29 08:50:15;;;;;;;2.50;2.00;;;21.70;79.20;22.60;100016.00;;;;6217713;22;20250;-54
2023/07/29 08:52:41;;;;;;;2.03;1.93;;;21.70;79.40;22.60;100016.00;;;;6268984;22;20612;-54
2023/07/29 08:55:07;;;;;;;2.10;2.00;;;21.70;79.30;22.60;100011.00;;;;6218507;22;20160;-56
2023/07/29 08:57:33;;;;;;;3.73;2.07;;;21.70;79.50;22.60;100018.00;;;;6267723;22;20153;-54
2023/07/29 08:59:59;;;;;;;2.53;1.90;;;21.70;79.30;22.70;100012.00;;;;6217649;22;20177;-54
2023/07/29 09:02:24;;;;;;;2.00;1.90;;;21.80;79.50;22.70;100017.00;;;;6243314;22;20187;-54
2023/07/29 09:04:50;;;;;;;2.20;1.90;;;21.80;79.50;22.50;100021.00;;;;6270802;22;20149;-55
2023/07/29 09:07:16;;;;;;;4.23;2.00;;;21.80;79.20;22.70;100015.00;;;;6269893;22;20152;-53
2023/07/29 09:09:42;;;;;;;2.63;1.90;;;21.80;79.50;22.70;100012.00;;;;6241976;22;20189;-53
2023/07/29 09:12:08;;;;;;;2.17;1.93;;;21.80;79.60;22.70;100016.00;;;;6269544;22;20654;-53
2023/07/29 09:14:34;;;;;;;4.33;2.23;;;21.80;79.60;22.70;100024.00;;;;6243674;22;20186;-54
2023/07/29 09:16:59;;;;;;;3.93;2.00;;;21.80;79.50;22.70;100022.00;;;;6268853;22;20189;-55
2023/07/29 09:19:26;;;;;;;3.73;1.90;;;21.80;79.70;22.70;100026.00;;;;6243486;22;20169;-55
2023/07/29 09:21:52;;;;;;;3.30;1.90;;;21.80;79.60;22.70;100021.00;;;;6270603;22;20224;-55
2023/07/29 09:24:18;;;;;;;2.60;2.07;;;21.80;79.50;22.70;100029.00;;;;6270426;22;20606;-55
2023/07/29 09:26:50;;;;;;;2.40;1.70;;;21.80;79.50;22.70;100035.00;;;;6268681;22;20145;-55
2023/07/29 09:29:20;;;;;;;2.33;1.87;;;21.80;79.50;22.70;100042.00;;;;6269280;22;20165;-54
2023/07/29 09:31:46;;;;;;;1.73;1.63;;;21.80;80.00;22.60;100033.00;;;;6219554;22;20157;-54
2023/07/29 09:34:12;;;;;;;3.10;1.90;;;21.90;79.60;22.70;100033.00;;;;6269313;22;20292;-55
2023/07/29 09:36:38;;;;;;;2.43;1.97;;;21.90;79.80;22.70;100029.00;;;;6217518;22;20153;-56
2023/07/29 09:39:10;;;;;;;2.47;1.73;;;21.90;80.50;22.70;100034.00;;;;6243072;22;20492;-55
2023/07/29 09:41:35;;;;;;;2.27;2.00;;;21.90;79.90;22.70;99959.00;;;;6219802;22;20157;-53
2023/07/29 09:44:03;;;;;;;2.37;1.80;;;21.90;79.80;22.70;100031.00;;;;6270146;22;20145;-54
2023/07/29 09:46:37;;;;;;;4.43;1.80;;;21.90;79.80;22.70;100030.00;;;;6267948;22;20176;-54
2023/07/29 09:49:07;;;;;;;3.47;1.80;;;21.90;80.60;22.70;100028.00;;;;6270696;22;20173;-55
2023/07/29 09:51:37;;;;;;;2.00;1.80;;;21.90;79.90;22.70;100025.00;;;;6269694;22;20176;-55
2023/07/29 09:54:03;;;;;;;2.10;1.87;;;22.00;80.00;22.70;100034.00;;;;6269281;22;20137;-55
2023/07/29 09:56:28;;;;;;;2.57;1.90;;;22.10;79.90;22.70;100029.00;;;;6273061;22;20475;-55
2023/07/29 09:58:57;;;;;;;2.97;1.90;;;22.00;79.90;22.70;100027.00;;;;6270846;22;20165;-53
2023/07/29 10:01:24;;;;;;;1.87;1.60;;;22.10;80.00;22.70;100026.00;;;;6268883;22;20260;-54
2023/07/29 10:03:49;;;;;;;2.17;1.70;;;22.00;79.90;22.70;100033.00;;;;6268924;22;20142;-53
2023/07/29 10:06:15;;;;;;;1.83;1.70;;;22.10;80.00;22.70;100031.00;;;;6268906;22;20159;-58
2023/07/29 10:08:42;;;;;;;1.97;1.83;;;22.00;79.90;22.80;100031.00;;;;6269205;22;20165;-54
2023/07/29 10:11:08;;;;;;;2.17;1.90;;;22.00;79.90;22.80;100026.00;;;;6272535;22;20152;-54
2023/07/29 10:13:36;;;;;;;2.17;1.97;;;22.10;79.80;22.80;100030.00;;;;6275613;22;20608;-53
2023/07/29 10:16:02;;;;;;;1.97;1.77;;;22.10;80.00;22.80;100032.00;;;;6268950;22;20509;-54
2023/07/29 10:18:28;;;;;;;2.03;1.83;;;22.10;80.00;22.90;100027.00;;;;6269161;22;20134;-55
2023/07/29 10:20:54;;;;;;;2.33;1.70;;;22.10;80.10;22.90;100027.00;;;;6269999;22;20165;-55
2023/07/29 10:23:20;;;;;;;1.90;1.77;;;22.10;80.10;22.90;100026.00;;;;6243019;22;20156;-53
2023/07/29 10:26:03;;;;;;;3.40;1.80;;;22.10;80.10;22.90;100033.00;;;;6241722;22;20153;-53
2023/07/29 10:28:30;;;;;;;2.03;1.77;;;22.10;80.10;22.90;100036.00;;;;6269168;22;20129;-54
2023/07/29 10:30:57;;;;;;;1.80;1.70;;;22.10;80.00;22.90;100036.00;;;;6269725;22;20152;-53
2023/07/29 10:33:23;;;;;;;2.47;1.70;;;22.10;79.90;23.00;100034.00;;;;6269947;22;20155;-54
2023/07/29 10:35:49;;;;;;;1.87;1.70;;;22.10;80.00;23.00;100034.00;;;;6268867;22;20491;-54
2023/07/29 10:38:15;;;;;;;1.80;1.70;;;22.10;79.80;23.00;100039.00;;;;6268540;22;20145;-54
2023/07/29 10:40:56;;;;;;;2.10;1.90;;;22.20;80.00;23.00;100019.00;;;;6267479;22;20172;-53
2023/07/29 10:43:38;;;;;;;4.73;1.80;;;22.20;80.00;23.00;100036.00;;;;6267652;22;20138;-53
2023/07/29 10:46:20;;;;;;;2.83;1.70;;;22.20;80.10;23.00;100039.00;;;;6269286;22;20267;-53
2023/07/29 10:48:54;;;;;;;1.97;1.87;;;22.20;80.00;23.00;100044.00;;;;6258036;22;20677;-54
2023/07/29 10:51:36;;;;;;;1.83;1.73;;;22.20;79.70;23.00;100039.00;;;;6269217;22;20617;-54